Time;durP1;ratioP1;P1;durP2;ratioP2;P2;SDS_P1;SDS_P2;PMS_P1;PMS_P2;Temp;Humidity;BMP_temperature;BMP_pressure;BME280_temperature;BME280_humidity;BME280_pressure;Samples;Min_cycle;Max_cycle;Signal;HPM_P1;HPM_P2
2023/10/15 00:00:05;;;;;;;;;;;;;;;5.57;89.76;101735.09;5040752;28;19925;-70
2023/10/15 00:02:31;;;;;;;;;;;;;;;5.63;88.58;101724.81;5046506;28;20351;-70
2023/10/15 00:04:57;;;;;;;;;;;;;;;5.69;89.66;101727.59;5043951;28;19921;-69
2023/10/15 00:07:22;;;;;;;;;;;;;;;5.78;89.04;101734.72;5038747;28;19927;-69
2023/10/15 00:09:50;;;;;;;;;;;;;;;5.84;89.76;101742.63;5039470;28;20237;-69
2023/10/15 00:12:15;;;;;;;;;;;;;;;5.90;89.59;101743.66;5072429;28;19927;-69
2023/10/15 00:14:42;;;;;;;;;;;;;;;6.00;90.55;101757.75;5050978;28;19920;-69
2023/10/15 00:17:07;;;;;;;;;;;;;;;6.08;90.29;101752.75;5039576;28;19925;-69
2023/10/15 00:19:32;;;;;;;;;;;;;;;6.17;89.81;101765.94;5069485;28;19938;-69
2023/10/15 00:21:57;;;;;;;;;;;;;;;6.24;88.95;101773.03;5054517;28;19932;-69
2023/10/15 00:24:23;;;;;;;;;;;;;;;6.28;90.07;101768.78;5051964;28;20350;-69
2023/10/15 00:26:49;;;;;;;;;;;;;;;6.33;89.66;101766.25;5047207;28;19927;-69
2023/10/15 00:29:14;;;;;;;;;;;;;;;6.40;90.09;101781.16;5057903;28;19921;-69
2023/10/15 00:31:41;;;;;;;;;;;;;;;6.45;90.02;101779.53;5049520;28;19928;-70
2023/10/15 00:34:12;;;;;;;;;;;;;;;6.50;90.11;101764.88;5047977;28;19924;-69
2023/10/15 00:36:38;;;;;;;;;;;;;;;6.55;88.78;101762.34;5057284;28;19930;-69
2023/10/15 00:39:09;;;;;;;;;;;;;;;6.62;88.28;101763.38;5072483;28;20011;-69
2023/10/15 00:41:35;;;;;;;;;;;;;;;6.66;89.27;101762.56;5035744;28;19921;-69
2023/10/15 00:44:00;;;;;;;;;;;;;;;6.70;89.16;101767.00;5038444;28;19978;-69
2023/10/15 00:46:29;;;;;;;;;;;;;;;6.73;87.81;101767.91;5037681;28;19920;-69
2023/10/15 00:49:09;;;;;;;;;;;;;;;6.76;88.91;101761.91;5052144;28;20281;-69
2023/10/15 00:51:40;;;;;;;;;;;;;;;6.79;89.45;101759.34;5069292;28;19920;-69
2023/10/15 00:54:10;;;;;;;;;;;;;;;6.80;91.05;101758.50;5037775;28;19938;-69
2023/10/15 00:56:36;;;;;;;;;;;;;;;6.81;90.14;101754.16;5047191;28;19928;-69
2023/10/15 00:59:45;;;;;;;;;;;;;;;6.81;89.56;101743.75;5065532;28;19930;-69
2023/10/15 01:02:05;;;;;;;;;;;;;;;6.80;89.97;101742.88;5060238;28;19939;-68
2023/10/15 01:04:32;;;;;;;;;;;;;;;6.81;90.62;101739.44;5038738;28;20431;-69
2023/10/15 01:07:01;;;;;;;;;;;;;;;6.82;90.40;101730.75;5033984;28;20023;-69
2023/10/15 01:09:29;;;;;;;;;;;;;;;6.84;90.65;101730.75;5055380;28;19924;-69
2023/10/15 01:11:58;;;;;;;;;;;;;;;6.86;91.09;101726.47;5055113;28;19916;-69
2023/10/15 01:14:37;;;;;;;;;;;;;;;6.87;91.36;101723.91;5066453;28;19924;-69
2023/10/15 01:17:03;;;;;;;;;;;;;;;6.90;91.07;101744.78;5063160;28;20359;-69
2023/10/15 01:19:32;;;;;;;;;;;;;;;6.93;90.99;101741.38;5057930;28;19974;-69
2023/10/15 01:22:01;;;;;;;;;;;;;;;6.95;90.92;101737.03;5036194;28;19920;-69
2023/10/15 01:24:33;;;;;;;;;;;;;;;6.94;91.59;101730.97;5068687;28;19966;-69
2023/10/15 01:27:11;;;;;;;;;;;;;;;6.94;90.67;101728.38;5046022;28;19921;-68
2023/10/15 01:29:48;;;;;;;;;;;;;;;6.96;90.93;101750.97;5052534;28;19916;-68
2023/10/15 01:32:14;;;;;;;;;;;;;;;6.98;89.56;101751.88;5056883;28;19926;-68
2023/10/15 01:34:45;;;;;;;;;;;;;;;7.00;89.78;101748.44;5047666;28;19935;-68
2023/10/15 01:37:30;;;;;;;;;;;;;;;7.00;90.83;101734.53;5069564;28;19927;-68
2023/10/15 01:42:40;;;;;;;;;;;;;;;6.99;90.77;101730.19;5066421;28;19963;-69
2023/10/15 01:47:44;;;;;;;;;;;;;;;7.00;90.26;101763.22;5047082;28;20279;-68
2023/10/15 01:50:14;;;;;;;;;;;;;;;7.02;89.86;101756.28;5051205;28;19943;-69
2023/10/15 01:52:41;;;;;;;;;;;;;;;7.03;89.84;101735.47;5039185;28;19943;-68
2023/10/15 01:55:08;;;;;;;;;;;;;;;7.00;91.20;101761.47;5033559;28;19927;-68
2023/10/15 01:57:36;;;;;;;;;;;;;;;7.02;90.23;101779.75;5053895;28;19980;-67
2023/10/15 02:00:13;;;;;;;;;;;;;;;7.02;90.10;101758.91;5035722;28;20271;-67
2023/10/15 02:02:38;;;;;;;;;;;;;;;6.96;91.23;101738.81;5046276;28;19924;-66
2023/10/15 02:05:04;;;;;;;;;;;;;;;6.92;90.31;101727.47;5068863;28;19928;-66
2023/10/15 02:07:31;;;;;;;;;;;;;;;6.90;90.54;101733.50;5062337;28;19916;-66
2023/10/15 02:09:56;;;;;;;;;;;;;;;6.85;91.59;101720.41;5056209;28;19963;-66
2023/10/15 02:12:21;;;;;;;;;;;;;;;6.86;91.69;101721.25;5037945;28;19963;-66
2023/10/15 02:14:51;;;;;;;;;;;;;;;6.83;91.51;101729.91;5044887;28;20012;-66
2023/10/15 02:17:19;;;;;;;;;;;;;;;6.82;92.03;101724.66;5041805;28;19924;-68
2023/10/15 02:19:46;;;;;;;;;;;;;;;6.77;92.52;101732.41;5044188;28;20303;-69
2023/10/15 02:22:12;;;;;;;;;;;;;;;6.71;92.40;101724.44;5061117;28;19923;-67
2023/10/15 02:24:46;;;;;;;;;;;;;;;6.65;91.98;101721.75;5036466;28;19920;-67
2023/10/15 02:27:11;;;;;;;;;;;;;;;6.57;92.10;101725.09;5034574;28;20384;-66
2023/10/15 02:29:41;;;;;;;;;;;;;;;6.52;91.94;101725.84;5056172;28;20507;-67
2023/10/15 02:34:51;;;;;;;;;;;;;;;6.31;92.50;101723.72;5075815;28;19943;-67
2023/10/15 02:37:18;;;;;;;;;;;;;;;6.23;92.71;101723.53;5035602;28;19924;-67
2023/10/15 02:39:45;;;;;;;;;;;;;;;6.18;92.95;101726.06;5056834;28;19975;-67
2023/10/15 02:42:11;;;;;;;;;;;;;;;6.15;92.98;101718.19;5047098;28;19921;-70
2023/10/15 02:44:38;;;;;;;;;;;;;;;6.13;94.00;101717.28;5059068;28;19968;-69
2023/10/15 02:50:02;;;;;;;;;;;;;;;6.18;92.71;101783.31;5029177;28;20041;-69
2023/10/15 02:52:35;;;;;;;;;;;;;;;6.28;92.99;101786.09;5060684;28;19991;-68
2023/10/15 02:55:07;;;;;;;;;;;;;;;6.30;94.43;101787.03;5073210;28;19917;-68
2023/10/15 02:57:38;;;;;;;;;;;;;;;6.34;94.49;101799.28;5064456;28;20003;-69
2023/10/15 03:00:12;;;;;;;;;;;;;;;6.40;94.40;101815.00;5058496;28;19928;-68
2023/10/15 03:02:43;;;;;;;;;;;;;;;6.28;94.35;101791.31;5061205;28;19959;-69
2023/10/15 03:05:13;;;;;;;;;;;;;;;6.20;94.33;101781.63;5040941;28;19924;-70
2023/10/15 03:07:42;;;;;;;;;;;;;;;6.15;93.89;101774.56;5078305;28;19920;-70
2023/10/15 03:10:08;;;;;;;;;;;;;;;6.07;94.51;101774.41;5074385;28;20373;-70
2023/10/15 03:12:33;;;;;;;;;;;;;;;6.00;93.84;101782.91;5052675;28;20015;-66
2023/10/15 03:15:00;;;;;;;;;;;;;;;5.97;94.80;101780.22;5073549;28;20551;-67
2023/10/15 03:17:26;;;;;;;;;;;;;;;5.91;94.13;101762.75;5050683;28;19928;-66
2023/10/15 03:20:10;;;;;;;;;;;;;;;5.84;93.68;101774.72;5053416;28;19916;-69
2023/10/15 03:22:37;;;;;;;;;;;;;;;5.80;93.90;101772.91;5052795;28;20372;-70
2023/10/15 03:25:04;;;;;;;;;;;;;;;5.74;94.66;101780.56;5053306;28;19927;-70
2023/10/15 03:27:29;;;;;;;;;;;;;;;5.70;94.81;101789.13;5058621;28;19924;-66
2023/10/15 03:29:57;;;;;;;;;;;;;;;5.71;94.87;101801.31;5042598;28;20292;-66
2023/10/15 03:32:30;;;;;;;;;;;;;;;5.71;95.00;101788.31;5039266;28;19927;-66
2023/10/15 03:35:04;;;;;;;;;;;;;;;5.75;94.50;101786.63;5046452;28;19964;-66
2023/10/15 03:37:30;;;;;;;;;;;;;;;5.69;95.61;101784.81;5037638;28;19924;-66
2023/10/15 03:39:55;;;;;;;;;;;;;;;5.68;95.80;101770.03;5041816;28;20295;-66
2023/10/15 03:42:26;;;;;;;;;;;;;;;5.57;95.66;101774.97;5054432;28;19927;-66
2023/10/15 03:44:58;;;;;;;;;;;;;;;5.51;96.04;101791.28;5062942;28;20363;-68
2023/10/15 03:47:24;;;;;;;;;;;;;;;5.54;96.41;101788.75;5047966;28;19924;-66
2023/10/15 03:49:51;;;;;;;;;;;;;;;5.57;96.46;101787.09;5058755;28;19973;-66
2023/10/15 03:52:20;;;;;;;;;;;;;;;5.61;96.83;101797.59;5037102;28;19924;-66
2023/10/15 03:54:47;;;;;;;;;;;;;;;5.63;96.29;101802.84;5038067;28;19977;-66
2023/10/15 03:57:17;;;;;;;;;;;;;;;5.65;95.83;101807.22;5071471;28;19948;-66
2023/10/15 03:59:44;;;;;;;;;;;;;;;5.65;96.48;101807.22;5043853;28;20006;-65
2023/10/15 04:02:22;;;;;;;;;;;;;;;5.68;96.61;101809.03;5045165;28;20450;-69
2023/10/15 04:04:48;;;;;;;;;;;;;;;5.68;96.67;101806.44;5057759;28;19921;-70
2023/10/15 04:07:19;;;;;;;;;;;;;;;5.69;95.94;101811.66;5037832;28;19955;-69
2023/10/15 04:09:45;;;;;;;;;;;;;;;5.67;96.01;101800.34;5064886;28;19927;-66
2023/10/15 04:12:10;;;;;;;;;;;;;;;5.68;96.48;101785.63;5051308;28;19916;-66
2023/10/15 04:14:43;;;;;;;;;;;;;;;5.70;95.68;101778.72;5047319;28;20268;-66
2023/10/15 04:17:09;;;;;;;;;;;;;;;5.68;95.77;101773.50;5055850;28;19924;-66
2023/10/15 04:19:36;;;;;;;;;;;;;;;5.69;96.61;101775.25;5062153;28;20303;-66
2023/10/15 04:22:13;;;;;;;;;;;;;;;5.71;96.61;101780.50;5036418;28;20013;-66
2023/10/15 04:24:40;;;;;;;;;;;;;;;5.72;97.05;101788.34;5049145;28;20399;-66
2023/10/15 04:27:18;;;;;;;;;;;;;;;5.75;96.56;101792.72;5034450;28;19920;-66
2023/10/15 04:29:51;;;;;;;;;;;;;;;5.78;96.69;101789.34;5051729;28;20045;-70
2023/10/15 04:33:02;;;;;;;;;;;;;;;5.79;96.63;101791.97;5050410;28;20018;-70
2023/10/15 04:35:17;;;;;;;;;;;;;;;5.81;96.66;101792.88;5032330;28;19924;-69
2023/10/15 04:37:44;;;;;;;;;;;;;;;5.83;96.96;101793.81;5033352;28;19921;-70
2023/10/15 04:40:11;;;;;;;;;;;;;;;5.85;96.80;101791.22;5026852;28;19986;-70
2023/10/15 04:42:40;;;;;;;;;;;;;;;5.86;97.14;101796.47;5019710;28;19928;-70
2023/10/15 04:45:20;;;;;;;;;;;;;;;5.89;97.42;101795.66;5015272;28;19925;-69
2023/10/15 04:47:50;;;;;;;;;;;;;;;5.90;97.20;101795.69;5022172;28;19921;-70
2023/10/15 04:50:16;;;;;;;;;;;;;;;5.92;97.66;101794.84;5037182;28;20003;-70
2023/10/15 04:52:44;;;;;;;;;;;;;;;5.93;97.65;101802.66;5013402;28;20066;-70
2023/10/15 04:55:17;;;;;;;;;;;;;;;5.96;97.49;101794.06;5008659;28;19924;-70
2023/10/15 04:57:42;;;;;;;;;;;;;;;5.97;97.36;101795.81;5042602;28;19924;-70
2023/10/15 05:00:07;;;;;;;;;;;;;;;5.96;97.36;101781.94;5047145;28;20310;-70
2023/10/15 05:02:33;;;;;;;;;;;;;;;5.94;97.92;101787.97;5030814;28;19964;-66
2023/10/15 05:05:00;;;;;;;;;;;;;;;5.94;97.81;101790.56;5024504;28;19940;-66
2023/10/15 05:07:26;;;;;;;;;;;;;;;5.90;98.18;101777.50;5037637;28;19917;-69
2023/10/15 05:09:53;;;;;;;;;;;;;;;5.88;98.02;101783.50;5034401;28;20412;-69
2023/10/15 05:12:20;;;;;;;;;;;;;;;5.81;97.18;101769.47;5051056;28;19925;-70
2023/10/15 05:14:49;;;;;;;;;;;;;;;5.79;97.31;101772.84;5035982;28;20288;-70
2023/10/15 05:17:16;;;;;;;;;;;;;;;5.76;98.00;101776.28;5008710;28;20021;-70
2023/10/15 05:19:45;;;;;;;;;;;;;;;5.72;98.13;101774.47;5004325;28;20350;-70
2023/10/15 05:22:10;;;;;;;;;;;;;;;5.68;96.72;101780.44;5024979;28;20288;-70
2023/10/15 05:24:36;;;;;;;;;;;;;;;5.61;97.81;101778.53;5025169;28;19921;-70
2023/10/15 05:27:01;;;;;;;;;;;;;;;5.55;97.54;101785.31;5043151;28;19924;-66
2023/10/15 05:29:27;;;;;;;;;;;;;;;5.48;98.13;101778.22;5049945;28;19917;-66
2023/10/15 05:31:57;;;;;;;;;;;;;;;5.42;98.00;101770.28;5027141;28;20309;-66
2023/10/15 05:34:22;;;;;;;;;;;;;;;5.40;97.96;101779.75;5024242;28;19921;-70
2023/10/15 05:36:48;;;;;;;;;;;;;;;5.42;98.54;101785.00;5048585;28;19948;-70
2023/10/15 05:39:15;;;;;;;;;;;;;;;5.46;98.60;101792.03;5041470;28;19928;-70
2023/10/15 05:41:41;;;;;;;;;;;;;;;5.50;98.83;101819.84;5048014;28;19921;-64
2023/10/15 05:44:06;;;;;;;;;;;;;;;5.52;98.99;101816.47;5068357;28;19924;-64
2023/10/15 05:46:32;;;;;;;;;;;;;;;5.57;98.56;101820.91;5054795;28;20296;-68
2023/10/15 05:48:59;;;;;;;;;;;;;;;5.62;99.41;101816.69;5067899;28;19916;-69
2023/10/15 05:51:24;;;;;;;;;;;;;;;5.68;99.47;101811.63;5036851;28;20024;-70
2023/10/15 05:53:50;;;;;;;;;;;;;;;5.72;99.47;101819.53;5052944;28;20388;-66
2023/10/15 05:56:18;;;;;;;;;;;;;;;5.75;98.66;101808.34;5041450;28;19929;-66
2023/10/15 05:58:44;;;;;;;;;;;;;;;5.79;98.31;101810.19;5038665;28;19920;-70
2023/10/15 06:01:09;;;;;;;;;;;;;;;5.82;98.53;101819.75;5066063;28;19988;-66
2023/10/15 06:03:35;;;;;;;;;;;;;;;5.89;97.59;101832.94;5033519;28;20365;-67
2023/10/15 06:06:02;;;;;;;;;;;;;;;5.87;98.41;101829.41;5074866;28;20073;-67
2023/10/15 06:08:27;;;;;;;;;;;;;;;5.88;98.06;101828.59;5068969;28;19987;-70
2023/10/15 06:10:53;;;;;;;;;;;;;;;5.98;97.70;101836.66;5068102;28;19932;-71
2023/10/15 06:13:18;;;;;;;;;;;;;;;5.94;97.81;101845.19;5051910;28;19931;-70
2023/10/15 06:15:48;;;;;;;;;;;;;;;5.97;97.29;101842.66;5050552;28;20384;-71
2023/10/15 06:18:16;;;;;;;;;;;;;;;5.96;98.37;101834.00;5041298;28;19982;-70
2023/10/15 06:20:42;;;;;;;;;;;;;;;5.99;97.01;101844.50;5068747;28;19916;-71
2023/10/15 06:23:08;;;;;;;;;;;;;;;6.00;97.70;101850.56;5052507;28;20315;-70
2023/10/15 06:25:35;;;;;;;;;;;;;;;6.00;97.85;101850.56;5056257;28;19920;-70
2023/10/15 06:28:01;;;;;;;;;;;;;;;6.00;98.11;101853.16;5056747;28;20301;-70
2023/10/15 06:30:26;;;;;;;;;;;;;;;6.01;97.40;101860.13;5052021;28;19966;-70
2023/10/15 06:32:52;;;;;;;;;;;;;;;5.99;97.49;101857.50;5039340;28;20511;-69
2023/10/15 06:35:21;;;;;;;;;;;;;;;6.00;97.74;101858.38;5056021;28;20003;-72
2023/10/15 06:37:46;;;;;;;;;;;;;;;6.03;97.07;101848.03;5056454;28;19916;-66
2023/10/15 06:40:13;;;;;;;;;;;;;;;6.01;97.24;101835.00;5048585;28;19916;-67
2023/10/15 06:42:39;;;;;;;;;;;;;;;6.02;96.82;101828.03;5049148;28;19956;-67
2023/10/15 06:45:06;;;;;;;;;;;;;;;6.04;97.20;101832.44;5051011;28;20302;-69
2023/10/15 06:47:32;;;;;;;;;;;;;;;6.07;97.75;101834.25;5051091;28;20015;-68
2023/10/15 06:49:57;;;;;;;;;;;;;;;6.05;97.77;101839.41;5036569;28;20007;-67
2023/10/15 06:52:22;;;;;;;;;;;;;;;6.06;97.56;101851.59;5036430;28;19921;-67
2023/10/15 06:54:48;;;;;;;;;;;;;;;6.06;97.81;101868.91;5055222;28;19927;-68
2023/10/15 06:57:16;;;;;;;;;;;;;;;6.10;97.12;101877.69;5039831;28;19921;-71
2023/10/15 06:59:42;;;;;;;;;;;;;;;6.09;97.48;101886.31;5041374;28;19990;-70
2023/10/15 07:02:07;;;;;;;;;;;;;;;6.07;97.42;101888.91;5056814;28;19916;-69
2023/10/15 07:04:33;;;;;;;;;;;;;;;6.10;97.23;101888.97;5062138;28;19929;-68
2023/10/15 07:06:58;;;;;;;;;;;;;;;6.11;97.38;101897.66;5054419;28;20372;-68
2023/10/15 07:09:23;;;;;;;;;;;;;;;6.18;98.40;101894.38;5055574;28;19924;-68
2023/10/15 07:11:48;;;;;;;;;;;;;;;6.31;97.78;101888.59;5044211;28;19920;-68
2023/10/15 07:14:14;;;;;;;;;;;;;;;6.75;97.38;101891.28;5067121;28;20313;-68
2023/10/15 07:16:40;;;;;;;;;;;;;;;8.23;97.36;101898.25;5069320;28;19925;-69
2023/10/15 07:19:06;;;;;;;;;;;;;;;10.05;95.57;101902.03;5055815;28;20027;-70
2023/10/15 07:21:32;;;;;;;;;;;;;;;10.18;92.80;101906.47;5060503;28;20369;-68
2023/10/15 07:23:58;;;;;;;;;;;;;;;9.78;91.95;101908.78;5045996;28;20039;-68
2023/10/15 07:26:24;;;;;;;;;;;;;;;9.40;91.73;101908.44;5056176;28;19920;-69
2023/10/15 07:28:52;;;;;;;;;;;;;;;9.03;91.40;101908.91;5057792;28;19917;-69
2023/10/15 07:31:20;;;;;;;;;;;;;;;8.79;91.90;101912.09;5040928;28;19943;-68
2023/10/15 07:33:46;;;;;;;;;;;;;;;8.60;92.06;101913.59;5042873;28;19927;-68
2023/10/15 07:36:11;;;;;;;;;;;;;;;8.62;92.23;101923.22;5059232;28;19925;-68
2023/10/15 07:38:37;;;;;;;;;;;;;;;8.70;91.47;101925.06;5060854;28;20257;-68
2023/10/15 07:41:05;;;;;;;;;;;;;;;8.63;90.78;101926.69;5053974;28;19999;-68
2023/10/15 07:43:31;;;;;;;;;;;;;;;8.47;91.42;101936.06;5058539;28;19944;-68
2023/10/15 07:45:59;;;;;;;;;;;;;;;8.35;91.88;101947.16;5041605;28;20369;-67
2023/10/15 07:48:24;;;;;;;;;;;;;;;8.24;92.22;101952.22;5036196;28;19927;-67
2023/10/15 07:50:49;;;;;;;;;;;;;;;8.14;92.84;101950.31;5068187;28;19917;-67
2023/10/15 07:53:15;;;;;;;;;;;;;;;8.05;93.20;101950.19;5046580;28;19920;-68
2023/10/15 07:55:40;;;;;;;;;;;;;;;7.98;93.17;101951.81;5050133;28;19929;-67
2023/10/15 07:58:05;;;;;;;;;;;;;;;7.92;93.71;101942.13;5036773;28;19928;-67
2023/10/15 08:00:31;;;;;;;;;;;;;;;7.91;93.89;101949.94;5051397;28;19923;-67
2023/10/15 08:03:00;;;;;;;;;;;;;;;7.90;94.26;101951.69;5039196;28;19982;-68
2023/10/15 08:05:26;;;;;;;;;;;;;;;7.93;94.21;101945.63;5038228;28;19921;-69
2023/10/15 08:07:52;;;;;;;;;;;;;;;7.90;93.78;101951.69;5039621;28;20238;-69
2023/10/15 08:10:24;;;;;;;;;;;;;;;7.83;94.04;101933.25;5068808;28;19917;-70
2023/10/15 08:12:50;;;;;;;;;;;;;;;7.76;94.41;101932.31;5039263;28;20261;-69
2023/10/15 08:15:16;;;;;;;;;;;;;;;7.73;94.30;101938.34;5067332;28;19917;-69
2023/10/15 08:17:41;;;;;;;;;;;;;;;7.73;94.50;101953.09;5054782;28;19959;-68
2023/10/15 08:20:09;;;;;;;;;;;;;;;7.75;94.40;101943.59;5072693;28;20489;-68
2023/10/15 08:22:35;;;;;;;;;;;;;;;7.75;94.59;101946.19;5055417;28;19924;-70
2023/10/15 08:25:00;;;;;;;;;;;;;;;7.78;94.74;101951.47;5054315;28;19913;-68
2023/10/15 08:27:26;;;;;;;;;;;;;;;7.81;94.88;101967.16;5047620;28;19921;-68
2023/10/15 08:29:51;;;;;;;;;;;;;;;7.79;95.22;101961.91;5058266;28;20383;-68
2023/10/15 08:32:16;;;;;;;;;;;;;;;7.81;95.24;101975.00;5049914;28;19913;-68
2023/10/15 08:34:45;;;;;;;;;;;;;;;8.31;95.05;101980.19;5057412;28;19928;-68
2023/10/15 08:37:11;;;;;;;;;;;;;;;10.29;94.92;101992.16;5053823;28;19947;-68
2023/10/15 08:39:39;;;;;;;;;;;;;;;11.40;93.05;101995.41;5065780;28;20361;-69
2023/10/15 08:42:13;;;;;;;;;;;;;;;12.00;91.01;102005.22;5071670;28;20638;-68
2023/10/15 08:44:40;;;;;;;;;;;;;;;11.78;88.30;102021.78;5057666;28;19965;-69
2023/10/15 08:47:09;;;;;;;;;;;;;;;11.30;87.93;102038.25;5056282;28;19943;-68
2023/10/15 08:49:37;;;;;;;;;;;;;;;10.75;88.01;102047.56;5072782;28;19916;-68
2023/10/15 08:52:06;;;;;;;;;;;;;;;10.21;88.19;102044.47;5056402;28;19923;-68
2023/10/15 08:54:32;;;;;;;;;;;;;;;9.69;89.08;102056.16;5046098;28;20019;-69
2023/10/15 08:57:02;;;;;;;;;;;;;;;9.28;91.09;102058.28;5055971;28;20019;-69
2023/10/15 08:59:31;;;;;;;;;;;;;;;8.89;91.33;102065.56;5038344;28;20069;-70
2023/10/15 09:01:57;;;;;;;;;;;;;;;8.70;92.10;102066.16;5060269;28;20438;-70
2023/10/15 09:04:22;;;;;;;;;;;;;;;8.55;92.68;102062.47;5067553;28;19936;-70
2023/10/15 09:06:48;;;;;;;;;;;;;;;8.53;93.51;102065.91;5043822;28;19925;-71
2023/10/15 09:09:13;;;;;;;;;;;;;;;8.43;93.46;102063.09;5048373;28;19916;-70
2023/10/15 09:11:42;;;;;;;;;;;;;;;8.46;93.63;102062.28;5049317;28;19947;-70
2023/10/15 09:14:13;;;;;;;;;;;;;;;8.54;92.93;102063.31;5057547;28;19916;-70
2023/10/15 09:16:42;;;;;;;;;;;;;;;8.54;92.83;102065.06;5064069;28;19920;-69
2023/10/15 09:19:09;;;;;;;;;;;;;;;8.67;92.61;102077.44;5056290;28;19912;-69
2023/10/15 09:21:36;;;;;;;;;;;;;;;8.73;91.90;102063.59;5041569;28;19916;-69
2023/10/15 09:24:02;;;;;;;;;;;;;;;8.75;91.17;102070.63;5064457;28;20375;-69
2023/10/15 09:26:29;;;;;;;;;;;;;;;8.81;91.19;102069.84;5037268;28;19985;-70
2023/10/15 09:28:54;;;;;;;;;;;;;;;8.88;91.13;102066.44;5049380;28;19970;-69
2023/10/15 09:31:20;;;;;;;;;;;;;;;8.95;90.31;102060.47;5039826;28;19960;-69
2023/10/15 09:33:51;;;;;;;;;;;;;;;9.58;91.19;102068.25;5050459;28;19947;-70
2023/10/15 09:36:16;;;;;;;;;;;;;;;10.85;88.23;102066.84;5055379;28;19978;-70
2023/10/15 09:38:41;;;;;;;;;;;;;;;11.72;85.94;102071.66;5051392;28;19917;-69
2023/10/15 09:51:27;;;;;;;;;;;;;;;12.03;82.18;102092.78;826281;22;20232;-68
2023/10/15 09:53:53;;;;;;;;;;;;;;;11.75;82.20;102099.66;5174293;22;19928;-68
2023/10/15 09:59:23;;;;;;;;;;;;;;;11.26;84.66;102110.81;5113782;22;19978;-69
2023/10/15 10:07:05;;;;;;;;;;;;;;;10.83;85.18;102115.78;5130392;22;19924;-69
2023/10/15 10:09:36;;;;;;;;;;;;;;;10.80;85.48;102121.00;5069981;28;20286;-69
2023/10/15 10:12:07;;;;;;;;;;;;;;;10.84;85.62;102120.16;5114784;22;19936;-69
2023/10/15 10:28:11;;;;;;;;;;;;;;;11.68;83.39;102153.91;5123936;27;19969;-68
2023/10/15 10:30:41;;;;;;;;;;;;;;;11.42;83.55;102156.38;5130228;22;19924;-69
2023/10/15 11:00:12;;;;;;;;;;;;;;;12.84;79.64;102135.78;1505446;25;19924;-68
2023/10/15 11:02:37;;;;;;;;;;;;;;;12.64;80.63;102146.28;5078243;28;20005;-69
2023/10/15 11:05:06;;;;;;;;;;;;;;;12.46;80.56;102142.78;5094777;28;19951;-69
2023/10/15 11:07:35;;;;;;;;;;;;;;;12.34;80.72;102141.88;5097737;28;20398;-69
2023/10/15 11:10:05;;;;;;;;;;;;;;;12.16;80.19;102143.59;5097513;28;19926;-68
2023/10/15 11:12:31;;;;;;;;;;;;;;;12.01;81.23;102143.56;5097021;28;19911;-68
2023/10/15 11:14:57;;;;;;;;;;;;;;;11.82;81.09;102147.84;5096973;28;19999;-68
2023/10/15 11:17:22;;;;;;;;;;;;;;;11.60;82.31;102142.50;5095146;28;19950;-68
2023/10/15 11:19:48;;;;;;;;;;;;;;;11.60;82.63;102148.63;5074289;28;19981;-68
2023/10/15 11:22:14;;;;;;;;;;;;;;;11.79;80.90;102143.44;5083843;28;19926;-70
2023/10/15 11:24:44;;;;;;;;;;;;;;;12.02;82.06;102143.56;5094971;28;19927;-68
2023/10/15 11:27:12;;;;;;;;;;;;;;;12.10;81.96;102157.59;5094163;28;19964;-68
2023/10/15 11:29:37;;;;;;;;;;;;;;;12.05;82.31;102161.09;5070430;28;19973;-68
2023/10/15 11:32:06;;;;;;;;;;;;;;;11.99;82.05;102167.19;5109629;28;20366;-69
2023/10/15 11:34:33;;;;;;;;;;;;;;;11.92;81.82;102168.91;5068141;28;19963;-68
2023/10/15 11:37:01;;;;;;;;;;;;;;;11.95;81.22;102165.44;5094570;28;19916;-68
2023/10/15 11:39:37;;;;;;;;;;;;;;;11.98;80.69;102173.31;5075041;28;19916;-68
2023/10/15 11:42:13;;;;;;;;;;;;;;;12.09;81.31;102158.47;5081949;28;20152;-68
2023/10/15 11:44:42;;;;;;;;;;;;;;;12.20;80.29;102155.03;5089841;28;19912;-68
2023/10/15 11:47:11;;;;;;;;;;;;;;;12.29;79.77;102153.25;5108980;28;19923;-68
2023/10/15 11:49:43;;;;;;;;;;;;;;;12.33;79.16;102154.16;5100728;28;20374;-68
2023/10/15 11:52:11;;;;;;;;;;;;;;;12.21;79.31;102156.75;5079756;28;20375;-68
2023/10/15 11:54:43;;;;;;;;;;;;;;;12.07;80.14;102157.59;5095965;28;19911;-68
2023/10/15 11:57:16;;;;;;;;;;;;;;;11.83;79.93;102157.47;5088265;28;19992;-68
2023/10/15 11:59:41;;;;;;;;;;;;;;;11.73;79.94;102165.31;5108253;28;19920;-69
2023/10/15 12:02:11;;;;;;;;;;;;;;;11.59;81.68;102165.25;5092342;28;19955;-68
2023/10/15 12:04:38;;;;;;;;;;;;;;;11.42;80.95;102159.00;5077710;28;19927;-68
2023/10/15 12:07:03;;;;;;;;;;;;;;;11.44;81.70;102160.78;5095731;28;19927;-68
2023/10/15 12:09:31;;;;;;;;;;;;;;;11.37;81.47;102155.50;5094515;28;19916;-69
2023/10/15 12:11:57;;;;;;;;;;;;;;;11.26;80.43;102165.91;5091043;28;20003;-68
2023/10/15 12:14:22;;;;;;;;;;;;;;;11.27;81.26;102159.81;5094444;28;20060;-67
2023/10/15 12:16:47;;;;;;;;;;;;;;;11.43;80.50;102161.69;5075317;28;19924;-68
2023/10/15 12:19:13;;;;;;;;;;;;;;;11.79;79.79;102170.59;5079406;28;19923;-68
2023/10/15 12:21:39;;;;;;;;;;;;;;;12.46;77.51;102165.56;5091925;28;20834;-68
2023/10/15 12:24:05;;;;;;;;;;;;;;;12.38;76.14;102173.44;5109039;28;19918;-68
2023/10/15 12:26:30;;;;;;;;;;;;;;;12.06;76.91;102174.22;5094792;28;19916;-69
2023/10/15 12:28:56;;;;;;;;;;;;;;;11.99;77.06;102172.44;5112922;28;19922;-68
2023/10/15 12:31:21;;;;;;;;;;;;;;;11.88;75.98;102164.50;5093581;28;20301;-68
2023/10/15 12:33:46;;;;;;;;;;;;;;;11.74;77.24;102167.06;5093858;28;19920;-68
2023/10/15 12:36:13;;;;;;;;;;;;;;;11.75;76.91;102166.22;5094574;28;19927;-68
2023/10/15 12:38:39;;;;;;;;;;;;;;;11.82;77.74;102155.72;5077694;28;19919;-68
2023/10/15 12:41:05;;;;;;;;;;;;;;;11.84;78.57;102159.22;5110482;28;19935;-68
2023/10/15 12:43:31;;;;;;;;;;;;;;;11.87;78.33;102164.50;5092446;28;19965;-68
2023/10/15 12:45:57;;;;;;;;;;;;;;;12.01;77.58;102165.47;5094084;28;19916;-70
2023/10/15 12:48:22;;;;;;;;;;;;;;;12.08;77.75;102156.75;5092728;28;19919;-67
2023/10/15 12:50:48;;;;;;;;;;;;;;;12.05;77.21;102158.47;5076136;28;19920;-68
2023/10/15 12:53:15;;;;;;;;;;;;;;;12.02;77.39;102168.97;5091053;28;19916;-67
2023/10/15 12:55:41;;;;;;;;;;;;;;;11.86;77.97;102170.63;5091565;28;19924;-68
2023/10/15 12:58:09;;;;;;;;;;;;;;;11.66;77.78;102179.28;5091231;28;19938;-68
2023/10/15 13:00:39;;;;;;;;;;;;;;;11.47;77.83;102180.06;5094733;28;19920;-68
2023/10/15 13:03:05;;;;;;;;;;;;;;;11.26;79.24;102189.53;5094212;28;20341;-67
2023/10/15 13:05:30;;;;;;;;;;;;;;;11.08;79.15;102196.41;5091730;28;19912;-67
2023/10/15 13:07:56;;;;;;;;;;;;;;;10.88;78.78;102198.00;5093918;28;19920;-68
2023/10/15 13:10:22;;;;;;;;;;;;;;;10.37;79.54;102197.47;5092817;28;20179;-67
2023/10/15 13:12:48;;;;;;;;;;;;;;;10.03;80.38;102208.44;5094758;28;19915;-67
2023/10/15 13:15:14;;;;;;;;;;;;;;;9.76;81.04;102195.00;5091450;28;19945;-66
2023/10/15 13:17:41;;;;;;;;;;;;;;;9.52;81.43;102192.06;5094069;28;19919;-67
2023/10/15 13:20:11;;;;;;;;;;;;;;;9.35;81.61;102199.66;5093948;28;19912;-66
2023/10/15 13:22:36;;;;;;;;;;;;;;;9.26;81.86;102193.41;5094411;28;19923;-67
2023/10/15 13:25:02;;;;;;;;;;;;;;;9.18;81.74;102195.91;5091479;28;20287;-67
2023/10/15 13:27:27;;;;;;;;;;;;;;;9.17;81.64;102204.59;5092362;28;19922;-67
2023/10/15 13:29:53;;;;;;;;;;;;;;;9.34;82.69;102203.13;5088558;28;19969;-67
2023/10/15 13:32:19;;;;;;;;;;;;;;;9.63;82.77;102205.28;5076870;28;19916;-67
2023/10/15 13:34:45;;;;;;;;;;;;;;;9.88;82.17;102205.59;5093849;28;19916;-67
2023/10/15 13:37:10;;;;;;;;;;;;;;;10.11;82.27;102205.03;5077258;28;19926;-67
2023/10/15 13:39:37;;;;;;;;;;;;;;;10.11;82.02;102208.50;5074406;28;19920;-67
2023/10/15 13:42:03;;;;;;;;;;;;;;;10.17;82.34;102212.94;5092512;28;19950;-67
2023/10/15 13:44:29;;;;;;;;;;;;;;;10.29;81.76;102207.84;5094391;28;19925;-67
2023/10/15 13:46:54;;;;;;;;;;;;;;;10.43;81.50;102213.28;5080839;28;19915;-67
2023/10/15 13:49:23;;;;;;;;;;;;;;;10.49;81.46;102202.88;5074910;28;19920;-67
2023/10/15 13:51:49;;;;;;;;;;;;;;;10.59;80.25;102201.22;5081353;28;19937;-67
2023/10/15 13:54:14;;;;;;;;;;;;;;;10.64;79.92;102204.75;5098410;28;19995;-67